Time;durP1;ratioP1;P1;durP2;ratioP2;P2;SDS_P1;SDS_P2;PMS_P1;PMS_P2;Temp;Humidity;BMP_temperature;BMP_pressure;BME280_temperature;BME280_humidity;BME280_pressure;Samples;Min_cycle;Max_cycle;Signal;HPM_P1;HPM_P2
2021/12/22 00:02:12;;;;;;;8.65;3.03;;;22.00;72.20;;;;;;7902164;28;20279;-65
2021/12/22 00:05:57;;;;;;;2.92;2.22;;;22.00;72.10;;;;;;7902081;28;20748;-65
2021/12/22 00:09:43;;;;;;;4.80;3.10;;;21.90;72.00;;;;;;7901590;28;20698;-65
2021/12/22 00:13:30;;;;;;;3.70;2.67;;;21.90;72.10;;;;;;7902262;28;20200;-65
2021/12/22 00:17:15;;;;;;;5.22;2.63;;;21.80;72.00;;;;;;7902049;28;20175;-65
2021/12/22 00:21:01;;;;;;;4.25;2.50;;;21.80;72.10;;;;;;7901212;28;20185;-66
2021/12/22 00:24:47;;;;;;;3.60;2.45;;;21.70;72.20;;;;;;7901643;28;20279;-66
2021/12/22 00:28:33;;;;;;;5.07;2.65;;;21.70;72.20;;;;;;7900810;28;20677;-67
2021/12/22 00:32:19;;;;;;;4.72;2.63;;;21.60;72.40;;;;;;7902031;28;20769;-65
2021/12/22 00:36:05;;;;;;;4.65;2.45;;;21.60;72.40;;;;;;7901279;28;20682;-66
2021/12/22 00:39:52;;;;;;;2.90;2.13;;;21.60;72.30;;;;;;7900506;28;20667;-65
2021/12/22 00:43:38;;;;;;;4.28;2.70;;;21.60;72.40;;;;;;7900957;28;20246;-65
2021/12/22 00:47:29;;;;;;;4.32;2.40;;;21.60;72.30;;;;;;7900841;28;20212;-66
2021/12/22 00:51:14;;;;;;;4.10;2.42;;;21.50;72.20;;;;;;7900845;28;20184;-65
2021/12/22 00:55:00;;;;;;;3.10;2.50;;;21.60;72.20;;;;;;7900734;28;20330;-65
2021/12/22 00:58:45;;;;;;;3.00;2.28;;;21.50;72.10;;;;;;7899817;28;20177;-65
2021/12/22 01:02:31;;;;;;;4.07;2.28;;;21.60;72.10;;;;;;7899936;28;20196;-65
2021/12/22 01:06:16;;;;;;;4.88;2.78;;;21.60;72.20;;;;;;7900452;28;20204;-65
2021/12/22 01:10:02;;;;;;;3.45;2.35;;;21.50;72.10;;;;;;7899765;28;20546;-65
2021/12/22 01:13:48;;;;;;;3.70;2.38;;;21.50;71.90;;;;;;7900314;28;20201;-65
2021/12/22 01:17:40;;;;;;;3.00;2.22;;;21.60;71.90;;;;;;7899672;28;20600;-64
2021/12/22 01:21:41;;;;;;;2.70;2.20;;;21.50;71.70;;;;;;7900187;28;20583;-65
2021/12/22 01:25:27;;;;;;;3.35;2.42;;;21.50;71.70;;;;;;7900181;28;20261;-64
2021/12/22 01:29:13;;;;;;;3.67;2.28;;;21.50;71.60;;;;;;7899576;28;20184;-64
2021/12/22 01:33:01;;;;;;;3.28;2.60;;;21.50;71.50;;;;;;7899926;28;20211;-65
2021/12/22 01:36:46;;;;;;;3.28;2.67;;;21.50;71.50;;;;;;7900160;28;20173;-64
2021/12/22 01:40:36;;;;;;;3.13;2.40;;;21.50;71.60;;;;;;7899510;28;20264;-65
2021/12/22 01:52:51;;;;;;;8.30;3.42;;;21.40;70.90;;;;;;7900387;28;20625;-65
2021/12/22 01:56:38;;;;;;;6.85;3.30;;;21.40;70.70;;;;;;7900167;28;20277;-65
2021/12/22 02:00:23;;;;;;;4.55;3.55;;;21.40;70.40;;;;;;7899055;28;20177;-65
2021/12/22 02:04:11;;;;;;;7.10;4.25;;;21.30;70.10;;;;;;7899711;28;20208;-64
2021/12/22 02:08:00;;;;;;;5.47;3.67;;;21.30;69.40;;;;;;7898943;28;20204;-65
2021/12/22 02:11:46;;;;;;;5.30;3.75;;;21.30;68.80;;;;;;7901943;28;20197;-65
2021/12/22 02:15:34;;;;;;;6.50;3.92;;;21.20;68.80;;;;;;7905391;28;20660;-64
2021/12/22 02:19:19;;;;;;;5.80;4.10;;;21.20;68.00;;;;;;7904636;28;20165;-65
2021/12/22 02:23:05;;;;;;;6.30;4.07;;;21.30;68.20;;;;;;7905178;28;20188;-65
2021/12/22 02:27:03;;;;;;;6.00;4.47;;;21.20;68.40;;;;;;7905037;28;20298;-65
2021/12/22 02:30:50;;;;;;;6.05;4.35;;;21.20;67.70;;;;;;7904515;28;20180;-65
2021/12/22 02:34:45;;;;;;;6.25;4.40;;;21.10;67.80;;;;;;7904650;28;20571;-65
2021/12/22 02:38:40;;;;;;;5.60;4.40;;;21.10;67.60;;;;;;7904030;28;20284;-65
2021/12/22 02:42:32;;;;;;;7.28;4.57;;;21.10;67.60;;;;;;7904414;28;20578;-65
2021/12/22 02:46:27;;;;;;;7.47;4.75;;;21.00;67.50;;;;;;7904426;28;20208;-65
2021/12/22 02:50:15;;;;;;;6.32;4.80;;;21.00;67.50;;;;;;7903816;28;20239;-65
2021/12/22 02:54:07;;;;;;;7.40;4.70;;;21.00;68.30;;;;;;7904438;28;20279;-65
2021/12/22 02:57:55;;;;;;;7.70;4.53;;;21.00;67.40;;;;;;7903777;28;20192;-65
2021/12/22 03:05:34;;;;;;;6.70;4.30;;;20.90;67.30;;;;;;7903982;28;20201;-65
2021/12/22 03:09:37;;;;;;;7.97;5.00;;;20.90;67.30;;;;;;7903200;28;20203;-65
2021/12/22 03:13:23;;;;;;;8.13;4.70;;;20.90;67.30;;;;;;7903596;28;20742;-65
2021/12/22 03:17:09;;;;;;;7.32;4.95;;;20.90;67.20;;;;;;7903784;28;20176;-65
2021/12/22 03:21:04;;;;;;;6.28;4.60;;;20.80;67.20;;;;;;7902985;28;20638;-65
2021/12/22 03:24:51;;;;;;;6.38;4.60;;;20.80;67.10;;;;;;7902711;28;20200;-65
2021/12/22 03:28:36;;;;;;;6.78;4.88;;;20.80;67.00;;;;;;7902535;28;20206;-65
2021/12/22 03:32:22;;;;;;;7.97;4.97;;;20.80;67.00;;;;;;7903127;28;20212;-65
2021/12/22 03:36:07;;;;;;;8.32;5.10;;;20.80;67.00;;;;;;7903291;28;20173;-65
2021/12/22 03:39:53;;;;;;;8.00;4.80;;;20.80;67.00;;;;;;7902642;28;20177;-65
2021/12/22 03:43:38;;;;;;;9.38;5.20;;;20.70;67.00;;;;;;7903288;28;20261;-64
2021/12/22 03:47:26;;;;;;;8.90;5.15;;;20.70;66.90;;;;;;7902534;28;20214;-65
2021/12/22 03:51:11;;;;;;;8.10;5.10;;;20.70;66.80;;;;;;7902323;28;20161;-64
2021/12/22 03:54:58;;;;;;;7.35;5.00;;;20.70;66.80;;;;;;7902540;28;20216;-65
2021/12/22 03:58:43;;;;;;;6.80;4.47;;;20.70;66.80;;;;;;7901687;28;20169;-64
2021/12/22 04:02:29;;;;;;;5.75;4.78;;;20.70;66.70;;;;;;7902297;28;20201;-65
2021/12/22 04:06:15;;;;;;;8.02;5.10;;;20.70;66.70;;;;;;7902081;28;20200;-65
2021/12/22 04:10:08;;;;;;;7.18;5.22;;;20.70;66.70;;;;;;7901325;28;20661;-65
2021/12/22 04:13:54;;;;;;;7.50;4.97;;;20.60;66.60;;;;;;7901869;28;20708;-65
2021/12/22 04:17:39;;;;;;;7.68;4.65;;;20.60;66.60;;;;;;7901041;28;20275;-64
2021/12/22 04:21:25;;;;;;;6.65;4.50;;;20.60;66.50;;;;;;7901618;28;20268;-65
2021/12/22 04:25:19;;;;;;;6.68;4.88;;;20.60;66.50;;;;;;7901556;28;20215;-64
2021/12/22 04:29:04;;;;;;;6.38;4.70;;;20.60;66.50;;;;;;7900679;28;20241;-64
2021/12/22 04:32:50;;;;;;;6.60;4.53;;;20.60;66.50;;;;;;7901204;28;20261;-64
2021/12/22 04:36:38;;;;;;;6.72;4.50;;;20.50;66.40;;;;;;7901186;28;20184;-65
2021/12/22 04:40:23;;;;;;;8.10;4.65;;;20.50;66.40;;;;;;7900292;28;20205;-64
2021/12/22 04:44:09;;;;;;;8.13;4.82;;;20.60;66.50;;;;;;7901105;28;20205;-64
2021/12/22 04:47:55;;;;;;;6.63;4.72;;;20.50;66.50;;;;;;7900196;28;20212;-65
2021/12/22 04:51:48;;;;;;;7.72;4.47;;;20.50;66.40;;;;;;7900755;28;20243;-64
2021/12/22 04:55:33;;;;;;;7.60;4.60;;;20.50;66.50;;;;;;7900813;28;20518;-64
2021/12/22 04:59:19;;;;;;;6.32;4.43;;;20.50;66.40;;;;;;7900004;28;20177;-65
2021/12/22 05:03:05;;;;;;;10.15;5.05;;;20.50;66.30;;;;;;7900663;28;20192;-65
2021/12/22 05:06:51;;;;;;;8.43;4.68;;;20.50;66.30;;;;;;7900607;28;20203;-65
2021/12/22 05:10:37;;;;;;;6.55;4.72;;;20.50;66.30;;;;;;7899692;28;20172;-65
2021/12/22 05:14:23;;;;;;;13.05;5.20;;;20.50;66.20;;;;;;7900348;28;20732;-65
2021/12/22 05:22:20;;;;;;;11.60;5.30;;;20.40;66.10;;;;;;7876357;28;20592;-64
2021/12/22 05:26:05;;;;;;;9.25;5.65;;;20.40;66.10;;;;;;7900363;28;20236;-64
2021/12/22 05:29:51;;;;;;;8.60;5.88;;;20.40;66.10;;;;;;7899684;28;20299;-64
2021/12/22 05:33:36;;;;;;;8.98;6.03;;;20.40;66.10;;;;;;7900189;28;20247;-64
2021/12/22 05:37:22;;;;;;;8.80;6.57;;;20.40;66.10;;;;;;7900569;28;20544;-64
2021/12/22 05:41:08;;;;;;;11.55;6.55;;;20.30;66.00;;;;;;7899879;28;20233;-63
2021/12/22 05:44:53;;;;;;;12.05;6.40;;;20.30;66.00;;;;;;7900405;28;20205;-65
2021/12/22 05:48:39;;;;;;;8.18;5.50;;;20.30;66.20;;;;;;7904830;28;20234;-65
2021/12/22 05:52:24;;;;;;;13.00;5.55;;;20.30;66.40;;;;;;7896147;28;20190;-64
2021/12/22 05:56:12;;;;;;;16.88;5.60;;;20.30;66.70;;;;;;7847204;28;20218;-63
2021/12/22 05:59:58;;;;;;;11.10;5.45;;;20.30;66.60;;;;;;7841970;28;20585;-64
2021/12/22 06:03:44;;;;;;;17.48;5.82;;;20.30;66.70;;;;;;7842363;28;20329;-64
2021/12/22 06:07:29;;;;;;;11.80;5.60;;;20.30;66.70;;;;;;7841527;28;20216;-64
2021/12/22 06:11:15;;;;;;;13.13;5.70;;;20.30;66.50;;;;;;7862631;28;20760;-64
2021/12/22 06:15:00;;;;;;;14.50;5.50;;;20.30;66.40;;;;;;7873938;28;20201;-64
2021/12/22 06:18:50;;;;;;;9.35;5.38;;;20.20;66.30;;;;;;7873571;28;20192;-64
2021/12/22 06:22:36;;;;;;;10.20;5.70;;;20.30;66.30;;;;;;7873861;28;20199;-64
2021/12/22 06:26:22;;;;;;;10.60;5.82;;;20.20;66.30;;;;;;7873778;28;20208;-64
2021/12/22 06:30:08;;;;;;;9.50;5.28;;;20.20;66.20;;;;;;7873252;28;20173;-65
2021/12/22 06:33:54;;;;;;;9.30;5.35;;;20.30;66.10;;;;;;7873364;28;20213;-64
2021/12/22 06:37:39;;;;;;;9.77;5.00;;;20.30;66.10;;;;;;7873375;28;20184;-65
2021/12/22 06:41:25;;;;;;;16.58;5.50;;;20.20;66.00;;;;;;7873217;28;20177;-65
2021/12/22 06:45:13;;;;;;;10.45;5.18;;;20.20;66.00;;;;;;7873052;28;20170;-64
2021/12/22 06:48:58;;;;;;;11.82;5.93;;;20.20;66.00;;;;;;7872995;28;20639;-64
2021/12/22 06:52:44;;;;;;;10.65;5.80;;;20.20;65.80;;;;;;7873088;28;20544;-65
2021/12/22 06:56:30;;;;;;;13.13;5.90;;;20.20;65.70;;;;;;7872686;28;20683;-65
2021/12/22 07:00:15;;;;;;;12.20;5.35;;;20.20;65.70;;;;;;7871560;28;20189;-65
2021/12/22 07:04:02;;;;;;;11.95;6.00;;;20.20;66.00;;;;;;7872850;28;20228;-65
2021/12/22 07:07:48;;;;;;;12.50;6.70;;;20.20;66.50;;;;;;7872471;28;20721;-64
2021/12/22 07:11:36;;;;;;;23.60;7.60;;;20.30;66.10;;;;;;7872440;28;20770;-64
2021/12/22 07:15:21;;;;;;;20.23;7.90;;;20.20;65.70;;;;;;7872589;28;20543;-65
2021/12/22 07:19:07;;;;;;;13.43;8.60;;;20.20;65.70;;;;;;7872328;28;20277;-65
2021/12/22 07:22:52;;;;;;;19.52;8.45;;;20.20;65.50;;;;;;7872305;28;20625;-65
2021/12/22 07:26:38;;;;;;;21.10;8.13;;;20.20;65.50;;;;;;7872567;28;20189;-65
2021/12/22 07:30:23;;;;;;;12.68;9.02;;;20.10;65.40;;;;;;7872049;28;20714;-64
2021/12/22 07:34:23;;;;;;;18.75;8.25;;;20.10;65.40;;;;;;7871670;28;20661;-64
2021/12/22 07:38:27;;;;;;;11.48;7.80;;;20.10;65.40;;;;;;7871703;28;20207;-63
2021/12/22 07:42:12;;;;;;;12.60;7.90;;;20.10;65.40;;;;;;7871736;28;20228;-64
2021/12/22 07:45:58;;;;;;;14.98;7.75;;;20.10;65.30;;;;;;7871224;28;20236;-63
2021/12/22 07:49:44;;;;;;;13.30;7.82;;;20.10;65.40;;;;;;7871156;28;20165;-64
2021/12/22 07:53:29;;;;;;;14.13;7.80;;;20.10;65.40;;;;;;7871198;28;20193;-64
2021/12/22 07:57:15;;;;;;;12.27;7.93;;;20.10;65.40;;;;;;7871150;28;20181;-63
2021/12/22 08:01:00;;;;;;;13.68;8.00;;;20.10;65.30;;;;;;7870635;28;20182;-64
2021/12/22 08:04:45;;;;;;;12.40;7.50;;;20.10;65.10;;;;;;7870807;28;20714;-64
2021/12/22 08:08:31;;;;;;;11.07;7.00;;;20.20;65.30;;;;;;7869843;28;20718;-63
2021/12/22 08:12:17;;;;;;;9.30;6.65;;;20.20;65.30;;;;;;7870216;28;20194;-64
2021/12/22 08:16:03;;;;;;;10.85;6.88;;;20.20;65.20;;;;;;7870601;28;20227;-64
2021/12/22 08:19:48;;;;;;;11.25;6.30;;;20.20;65.40;;;;;;7870240;28;20252;-64
2021/12/22 08:23:34;;;;;;;8.35;5.38;;;20.30;65.20;;;;;;7870061;28;20254;-64
2021/12/22 08:27:21;;;;;;;13.05;6.50;;;20.30;65.50;;;;;;7870200;28;20194;-64
2021/12/22 08:31:07;;;;;;;11.07;6.00;;;20.30;65.20;;;;;;7870168;28;20182;-64
2021/12/22 08:34:55;;;;;;;8.95;6.20;;;20.20;65.20;;;;;;7869738;28;20205;-64
2021/12/22 08:38:53;;;;;;;13.52;8.23;;;20.30;65.20;;;;;;7869563;28;20189;-64
2021/12/22 08:42:38;;;;;;;16.92;8.20;;;20.30;65.10;;;;;;7869862;28;20199;-64
2021/12/22 08:46:25;;;;;;;11.57;9.05;;;20.30;65.00;;;;;;7869742;28;20213;-64
2021/12/22 08:50:13;;;;;;;13.77;9.30;;;20.30;65.00;;;;;;7869238;28;20643;-64
2021/12/22 08:54:00;;;;;;;12.48;8.63;;;20.30;65.00;;;;;;7869667;28;20230;-64
2021/12/22 08:57:46;;;;;;;11.10;8.27;;;20.30;64.90;;;;;;7869258;28;20261;-64
2021/12/22 09:01:31;;;;;;;11.15;8.27;;;20.30;64.90;;;;;;7869227;28;20174;-64
2021/12/22 09:05:17;;;;;;;10.85;8.57;;;20.30;64.80;;;;;;7869412;28;20185;-64
2021/12/22 09:09:04;;;;;;;12.02;8.65;;;20.30;64.80;;;;;;7868823;28;20178;-64
2021/12/22 09:12:50;;;;;;;10.75;7.72;;;20.30;64.70;;;;;;7869017;28;20243;-64
2021/12/22 09:16:36;;;;;;;10.27;7.63;;;20.30;64.70;;;;;;7869392;28;20173;-64
2021/12/22 09:20:22;;;;;;;12.80;6.85;;;20.30;64.70;;;;;;7868255;28;20268;-64
2021/12/22 09:24:08;;;;;;;11.38;7.20;;;20.30;64.70;;;;;;7869459;28;20200;-64
2021/12/22 09:27:54;;;;;;;8.45;6.78;;;20.40;64.70;;;;;;7868823;28;20403;-64
2021/12/22 09:31:40;;;;;;;9.68;6.80;;;20.40;64.90;;;;;;7869233;28;20174;-64
2021/12/22 09:35:27;;;;;;;11.25;7.03;;;20.40;64.70;;;;;;7868894;28;20184;-63
2021/12/22 09:39:13;;;;;;;12.15;6.25;;;20.40;64.70;;;;;;7868320;28;20165;-64
2021/12/22 09:42:58;;;;;;;8.75;6.32;;;20.40;64.90;;;;;;7868768;28;20204;-64
2021/12/22 09:46:48;;;;;;;8.30;6.05;;;20.50;65.00;;;;;;7869268;28;20204;-64
2021/12/22 09:54:39;;;;;;;8.23;5.40;;;20.50;64.70;;;;;;7868702;28;20193;-63
2021/12/22 09:58:25;;;;;;;7.40;5.45;;;20.50;64.50;;;;;;7868376;28;20239;-64
2021/12/22 10:02:12;;;;;;;12.05;5.32;;;20.50;64.30;;;;;;7868514;28;20190;-63
2021/12/22 10:05:57;;;;;;;7.80;5.45;;;20.50;64.40;;;;;;7868181;28;20190;-63
2021/12/22 10:09:45;;;;;;;8.50;4.78;;;20.60;64.30;;;;;;7868146;28;20269;-63
2021/12/22 10:13:31;;;;;;;8.05;4.13;;;20.60;64.40;;;;;;7868314;28;20197;-63
2021/12/22 10:17:35;;;;;;;9.40;4.53;;;20.60;64.80;;;;;;7868249;28;20209;-64
2021/12/22 10:21:21;;;;;;;7.47;4.57;;;20.70;64.70;;;;;;7868766;28;20181;-63
2021/12/22 10:25:20;;;;;;;8.60;4.38;;;20.70;64.50;;;;;;7868344;28;20276;-63
2021/12/22 10:29:07;;;;;;;4.70;3.70;;;20.70;64.40;;;;;;7867717;28;20705;-63
2021/12/22 10:33:19;;;;;;;9.43;4.10;;;20.70;64.30;;;;;;7870168;28;20386;-63
2021/12/22 10:37:05;;;;;;;8.18;4.13;;;20.70;64.30;;;;;;7873599;28;20172;-63
2021/12/22 10:40:57;;;;;;;7.43;4.32;;;20.80;64.30;;;;;;7872894;28;20178;-64
2021/12/22 10:44:47;;;;;;;7.13;3.80;;;20.80;64.20;;;;;;7873461;28;20678;-64
2021/12/22 10:52:40;;;;;;;4.78;3.80;;;20.80;64.10;;;;;;7873546;28;20217;-64
2021/12/22 10:56:34;;;;;;;6.43;3.78;;;20.80;64.10;;;;;;7872869;28;20184;-63
2021/12/22 11:00:22;;;;;;;3.88;3.30;;;20.80;64.10;;;;;;7872698;28;20185;-63
2021/12/22 11:04:22;;;;;;;3.83;3.22;;;20.90;64.50;;;;;;7872768;28;20194;-63
2021/12/22 11:08:18;;;;;;;4.70;3.70;;;20.90;64.40;;;;;;7872497;28;20209;-62
2021/12/22 11:12:05;;;;;;;7.32;4.60;;;20.90;64.50;;;;;;7872612;28;20189;-63
2021/12/22 11:15:51;;;;;;;6.60;4.10;;;20.90;63.20;;;;;;7872548;28;20177;-63
2021/12/22 11:19:47;;;;;;;4.90;3.45;;;20.90;63.30;;;;;;7871963;28;20231;-63
2021/12/22 11:23:34;;;;;;;13.48;4.00;;;20.90;63.70;;;;;;7872347;28;20527;-64
2021/12/22 11:27:22;;;;;;;105.22;9.40;;;20.90;64.70;;;;;;7872277;28;20227;-64
2021/12/22 11:31:09;;;;;;;46.72;7.30;;;20.90;63.90;;;;;;7871763;28;20178;-64
2021/12/22 11:34:57;;;;;;;42.35;5.60;;;20.90;64.70;;;;;;7872121;28;20205;-63
2021/12/22 11:38:43;;;;;;;155.48;10.38;;;20.90;63.80;;;;;;7871752;28;20678;-58
2021/12/22 11:42:31;;;;;;;112.60;12.02;;;20.90;63.60;;;;;;7871714;28;20589;-64
2021/12/22 11:46:17;;;;;;;124.00;8.57;;;20.90;64.90;;;;;;7870114;28;20207;-61
2021/12/22 11:50:05;;;;;;;93.40;8.20;;;20.90;65.40;;;;;;7871013;28;20710;-61
2021/12/22 11:53:53;;;;;;;81.70;9.00;;;20.90;65.50;;;;;;7871376;28;20255;-60
2021/12/22 11:57:40;;;;;;;46.47;6.00;;;20.90;66.00;;;;;;7870963;28;20220;-61
2021/12/22 12:01:26;;;;;;;45.60;5.72;;;20.90;65.50;;;;;;7870884;28;20670;-61
2021/12/22 12:05:24;;;;;;;42.83;6.35;;;20.90;65.20;;;;;;7871006;28;20582;-62
2021/12/22 12:09:11;;;;;;;30.75;6.60;;;20.90;64.90;;;;;;7870394;28;20177;-62
2021/12/22 12:13:02;;;;;;;36.58;7.93;;;20.90;64.70;;;;;;7870667;28;20598;-61
2021/12/22 12:24:59;;;;;;;18.88;6.25;;;20.90;64.90;;;;;;7870355;28;20193;-61
2021/12/22 12:28:47;;;;;;;24.65;6.18;;;20.90;64.90;;;;;;7870007;28;20242;-61
2021/12/22 12:32:39;;;;;;;19.55;5.60;;;20.90;65.00;;;;;;7870231;28;20236;-61
2021/12/22 12:36:32;;;;;;;14.77;5.00;;;20.90;65.00;;;;;;7870380;28;20177;-61
2021/12/22 12:40:17;;;;;;;16.92;4.82;;;20.90;65.00;;;;;;7869717;28;20176;-61
2021/12/22 12:44:09;;;;;;;18.60;5.20;;;20.90;65.20;;;;;;7869801;28;20291;-61
2021/12/22 12:48:26;;;;;;;21.30;5.97;;;20.80;65.20;;;;;;7869420;28;20212;-62
2021/12/22 12:52:19;;;;;;;11.18;4.55;;;20.90;65.30;;;;;;7870049;28;20193;-59
2021/12/22 12:56:08;;;;;;;14.20;4.90;;;20.80;65.20;;;;;;7869941;28;20251;-61
2021/12/22 13:00:02;;;;;;;13.70;4.82;;;20.80;65.20;;;;;;7869278;28;20181;-62
2021/12/22 13:03:48;;;;;;;12.30;5.20;;;20.90;65.40;;;;;;7869524;28;20280;-61
2021/12/22 13:07:35;;;;;;;19.85;4.85;;;20.80;65.30;;;;;;7869162;28;20299;-61
2021/12/22 13:11:20;;;;;;;29.00;6.00;;;20.80;65.70;;;;;;7869198;28;20184;-60
2021/12/22 13:19:40;;;;;;;14.45;5.20;;;20.80;65.60;;;;;;7869012;28;20178;-61
2021/12/22 13:23:31;;;;;;;14.70;5.07;;;20.80;65.50;;;;;;7869005;28;20202;-61
2021/12/22 13:27:30;;;;;;;13.27;4.72;;;20.80;65.40;;;;;;7869169;28;20216;-61
2021/12/22 13:31:16;;;;;;;14.63;4.63;;;20.80;65.30;;;;;;7869132;28;20205;-62
2021/12/22 13:35:02;;;;;;;16.45;4.57;;;20.80;65.40;;;;;;7868405;28;20209;-59
2021/12/22 13:38:58;;;;;;;18.23;4.20;;;20.80;65.80;;;;;;7868903;28;20208;-62
2021/12/22 13:42:44;;;;;;;11.88;4.22;;;20.80;66.20;;;;;;7868923;28;20304;-61
2021/12/22 13:46:35;;;;;;;12.60;4.57;;;20.70;66.20;;;;;;7868532;28;20925;-62
2021/12/22 13:50:21;;;;;;;10.73;4.05;;;20.80;65.60;;;;;;7867776;28;20174;-62
2021/12/22 13:54:27;;;;;;;7.70;4.15;;;20.80;65.40;;;;;;7868165;28;20204;-61
2021/12/22 13:58:30;;;;;;;9.95;4.07;;;20.70;65.20;;;;;;7868441;28;20218;-61
2021/12/22 14:02:32;;;;;;;9.90;4.25;;;20.70;65.10;;;;;;7868501;28;20217;-61
2021/12/22 14:06:20;;;;;;;9.40;3.95;;;20.70;64.90;;;;;;7868523;28;20197;-59
2021/12/22 14:10:15;;;;;;;12.73;3.70;;;20.80;64.90;;;;;;7874125;28;20662;-61
2021/12/22 14:14:26;;;;;;;8.88;4.07;;;20.70;64.80;;;;;;7874228;28;20208;-61
2021/12/22 14:18:11;;;;;;;8.27;3.63;;;20.70;64.80;;;;;;7874151;28;20231;-62
2021/12/22 14:22:03;;;;;;;5.03;3.40;;;20.70;64.70;;;;;;7873960;28;20666;-62
2021/12/22 14:25:51;;;;;;;9.05;3.63;;;20.70;64.70;;;;;;7874035;28;20213;-61
2021/12/22 14:29:51;;;;;;;7.82;3.40;;;20.70;64.70;;;;;;7873762;28;20655;-61
2021/12/22 14:33:37;;;;;;;4.70;3.70;;;20.70;64.50;;;;;;7874287;28;20610;-61
2021/12/22 14:37:29;;;;;;;8.23;4.07;;;20.70;64.50;;;;;;7873794;28;20181;-61
2021/12/22 14:41:16;;;;;;;7.65;3.70;;;20.70;64.50;;;;;;7873668;28;20189;-62
2021/12/22 14:45:22;;;;;;;7.55;4.00;;;20.70;64.50;;;;;;7873462;28;20338;-61
2021/12/22 14:49:24;;;;;;;5.68;3.55;;;20.60;64.50;;;;;;7873177;28;20354;-61
2021/12/22 14:53:11;;;;;;;6.85;3.83;;;20.70;64.50;;;;;;7873325;28;20196;-61
2021/12/22 14:56:56;;;;;;;6.13;3.70;;;20.60;64.50;;;;;;7873003;28;20165;-61
2021/12/22 15:00:45;;;;;;;6.68;3.60;;;20.60;64.50;;;;;;7872833;28;20265;-61
2021/12/22 15:04:31;;;;;;;5.32;4.00;;;20.70;64.60;;;;;;7872864;28;20201;-62
2021/12/22 15:08:17;;;;;;;7.07;4.43;;;20.60;64.60;;;;;;7872486;28;20209;-62
2021/12/22 15:12:02;;;;;;;4.45;3.40;;;20.60;64.60;;;;;;7872562;28;20266;-61
2021/12/22 15:15:48;;;;;;;6.05;3.45;;;20.60;64.60;;;;;;7872506;28;20181;-61
2021/12/22 15:19:34;;;;;;;6.53;3.63;;;20.60;64.60;;;;;;7871061;28;20259;-61
2021/12/22 15:23:19;;;;;;;5.90;3.75;;;20.60;64.80;;;;;;7872224;28;20208;-62
2021/12/22 15:27:05;;;;;;;8.05;3.85;;;20.70;64.80;;;;;;7872114;28;20258;-62
2021/12/22 15:30:51;;;;;;;5.03;3.42;;;20.70;64.80;;;;;;7872041;28;20181;-62
2021/12/22 15:34:36;;;;;;;6.05;4.07;;;20.70;64.80;;;;;;7871782;28;20294;-62
2021/12/22 15:38:24;;;;;;;5.85;3.75;;;20.70;64.80;;;;;;7871804;28;20256;-61
2021/12/22 15:42:09;;;;;;;6.47;3.45;;;20.80;64.80;;;;;;7871743;28;20204;-62
2021/12/22 15:45:55;;;;;;;7.90;4.07;;;20.80;64.90;;;;;;7871590;28;20205;-61
2021/12/22 15:49:40;;;;;;;4.50;3.58;;;20.80;64.90;;;;;;7871431;28;20238;-61
2021/12/22 15:53:26;;;;;;;6.38;4.07;;;20.90;65.20;;;;;;7871273;28;20705;-62
2021/12/22 15:57:11;;;;;;;30.52;4.82;;;20.90;64.70;;;;;;7871171;28;20711;-63
2021/12/22 16:00:57;;;;;;;14.43;4.20;;;21.00;64.60;;;;;;7870262;28;20265;-60
2021/12/22 16:04:43;;;;;;;11.32;4.20;;;21.10;64.40;;;;;;7868005;28;20240;-59
2021/12/22 16:08:28;;;;;;;9.23;4.75;;;21.10;64.20;;;;;;7847433;28;20224;-59
2021/12/22 16:12:15;;;;;;;9.25;5.00;;;21.10;63.90;;;;;;7869639;28;20222;-61
2021/12/22 16:16:02;;;;;;;14.18;5.57;;;21.20;63.70;;;;;;7854835;28;20549;-62
2021/12/22 16:19:47;;;;;;;16.35;5.70;;;21.20;63.40;;;;;;7870407;28;20193;-61
2021/12/22 16:23:33;;;;;;;10.80;5.05;;;21.30;63.20;;;;;;7870773;28;20257;-62
2021/12/22 16:27:18;;;;;;;13.32;6.47;;;21.30;62.90;;;;;;7872097;28;20698;-61
2021/12/22 16:31:04;;;;;;;21.38;9.20;;;21.40;63.00;;;;;;7869740;28;20304;-62
2021/12/22 16:34:49;;;;;;;35.88;14.18;;;21.50;63.20;;;;;;7870134;28;20259;-61
2021/12/22 16:38:35;;;;;;;56.22;19.80;;;21.50;63.50;;;;;;7869897;28;20180;-61
2021/12/22 16:42:22;;;;;;;25.20;9.93;;;21.60;63.80;;;;;;7869988;28;20204;-61
2021/12/22 16:46:07;;;;;;;37.70;14.85;;;21.70;63.60;;;;;;7863407;28;20201;-61
2021/12/22 16:49:53;;;;;;;39.53;18.80;;;21.80;63.50;;;;;;7838181;28;20190;-62
2021/12/22 16:53:38;;;;;;;48.50;23.23;;;21.90;63.50;;;;;;7846598;28;20209;-62
2021/12/22 16:57:24;;;;;;;56.70;26.67;;;22.00;63.50;;;;;;7861355;28;20284;-60
2021/12/22 17:01:10;;;;;;;55.90;23.02;;;22.20;63.80;;;;;;7869530;28;20246;-61
2021/12/22 17:04:55;;;;;;;48.35;22.75;;;22.30;63.90;;;;;;7869552;28;20196;-61
2021/12/22 17:08:44;;;;;;;52.67;22.98;;;22.50;63.60;;;;;;7869238;28;20216;-62
2021/12/22 17:12:30;;;;;;;35.42;17.45;;;22.60;63.70;;;;;;7869344;28;20192;-63
2021/12/22 17:16:16;;;;;;;36.58;16.35;;;22.80;64.10;;;;;;7869400;28;20185;-64
2021/12/22 17:20:02;;;;;;;28.95;14.63;;;22.90;65.10;;;;;;7869668;28;20202;-61
2021/12/22 17:23:48;;;;;;;24.73;13.63;;;23.10;65.20;;;;;;7869299;28;20568;-61
2021/12/22 17:27:35;;;;;;;24.05;10.65;;;23.30;65.50;;;;;;7869055;28;20205;-62
2021/12/22 17:31:21;;;;;;;23.30;8.35;;;23.40;65.70;;;;;;7869334;28;20187;-62
2021/12/22 17:35:08;;;;;;;15.38;8.20;;;23.60;66.20;;;;;;7869042;28;20205;-62
2021/12/22 17:38:53;;;;;;;18.10;7.45;;;23.70;66.30;;;;;;7869153;28;20174;-60
2021/12/22 17:42:41;;;;;;;18.35;7.80;;;23.80;66.40;;;;;;7871222;28;20209;-61
2021/12/22 17:46:27;;;;;;;20.63;8.00;;;23.90;66.50;;;;;;7872186;28;20623;-62
2021/12/22 17:50:13;;;;;;;18.73;7.10;;;23.90;66.60;;;;;;7874914;28;20232;-61
2021/12/22 17:53:59;;;;;;;14.05;6.72;;;23.90;66.70;;;;;;7874867;28;20189;-62
2021/12/22 17:57:45;;;;;;;19.65;7.38;;;24.00;67.00;;;;;;7874789;28;20185;-61
2021/12/22 18:01:34;;;;;;;19.75;6.80;;;24.10;67.10;;;;;;7874671;28;20181;-61
2021/12/22 18:05:22;;;;;;;19.52;7.47;;;24.20;67.00;;;;;;7874563;28;20169;-62
2021/12/22 18:09:08;;;;;;;18.45;8.13;;;24.20;66.70;;;;;;7874442;28;20247;-62
2021/12/22 18:12:56;;;;;;;25.30;9.85;;;24.30;66.10;;;;;;7874369;28;20201;-61
2021/12/22 18:16:43;;;;;;;18.73;8.18;;;24.30;66.80;;;;;;7874273;28;20550;-61
2021/12/22 18:20:28;;;;;;;14.52;7.65;;;24.30;66.90;;;;;;7873936;28;20181;-61
2021/12/22 18:24:14;;;;;;;16.00;8.32;;;24.30;67.10;;;;;;7873621;28;20220;-61
2021/12/22 18:28:00;;;;;;;17.95;7.60;;;24.30;67.20;;;;;;7858891;28;20283;-62
2021/12/22 18:31:45;;;;;;;16.75;7.53;;;24.40;67.30;;;;;;7844495;28;20259;-63
2021/12/22 18:35:32;;;;;;;14.10;7.20;;;24.50;67.50;;;;;;7862414;28;20192;-61
2021/12/22 18:39:19;;;;;;;13.88;6.70;;;24.50;67.70;;;;;;7873643;28;20185;-62
2021/12/22 18:43:05;;;;;;;13.48;6.95;;;24.70;67.60;;;;;;7873358;28;20657;-62
2021/12/22 18:46:51;;;;;;;16.67;7.10;;;24.80;67.50;;;;;;7873159;28;20205;-61
2021/12/22 18:50:37;;;;;;;14.15;6.32;;;24.90;67.50;;;;;;7867994;28;20174;-62
2021/12/22 18:54:23;;;;;;;14.50;6.20;;;25.00;67.30;;;;;;7841777;28;20244;-61
2021/12/22 18:58:09;;;;;;;13.35;6.00;;;25.10;67.40;;;;;;7844332;28;20190;-62
2021/12/22 19:01:55;;;;;;;9.27;5.25;;;25.10;67.30;;;;;;7841936;28;20671;-62
2021/12/22 19:05:41;;;;;;;15.65;6.00;;;25.20;67.40;;;;;;7848955;28;20559;-61
2021/12/22 19:09:27;;;;;;;17.58;6.50;;;25.20;67.40;;;;;;7872822;28;20174;-61
2021/12/22 19:13:14;;;;;;;13.35;5.57;;;25.20;67.40;;;;;;7872849;28;20223;-62
2021/12/22 19:17:00;;;;;;;11.20;5.15;;;25.10;67.60;;;;;;7872711;28;20630;-62
2021/12/22 19:20:46;;;;;;;13.80;5.38;;;25.10;67.70;;;;;;7872447;28;20540;-61
2021/12/22 19:24:32;;;;;;;11.80;5.40;;;25.10;67.70;;;;;;7872685;28;20607;-61
2021/12/22 19:28:18;;;;;;;8.55;5.13;;;25.00;67.80;;;;;;7872652;28;20197;-62
2021/12/22 19:32:04;;;;;;;8.57;5.05;;;25.00;68.90;;;;;;7871575;28;20213;-61
2021/12/22 19:35:50;;;;;;;14.48;5.38;;;24.90;68.10;;;;;;7870137;28;20661;-62
2021/12/22 19:39:36;;;;;;;9.77;5.40;;;24.80;68.10;;;;;;7848164;28;20169;-63
2021/12/22 19:43:21;;;;;;;14.88;5.35;;;24.80;68.20;;;;;;7870888;28;20216;-61
2021/12/22 19:47:08;;;;;;;9.70;4.95;;;24.70;68.40;;;;;;7871624;28;20232;-60
2021/12/22 19:50:54;;;;;;;12.35;4.80;;;24.60;68.40;;;;;;7870555;28;20193;-61
2021/12/22 19:54:39;;;;;;;10.48;4.78;;;24.60;68.60;;;;;;7853163;28;20284;-62
2021/12/22 19:58:25;;;;;;;8.00;4.97;;;24.50;68.80;;;;;;7840011;28;20267;-62
2021/12/22 20:02:10;;;;;;;8.70;4.75;;;24.50;68.80;;;;;;7840039;28;20198;-62
2021/12/22 20:05:56;;;;;;;8.50;4.97;;;24.50;68.80;;;;;;7839313;28;20186;-62
2021/12/22 20:09:42;;;;;;;8.95;5.22;;;24.50;68.80;;;;;;7847657;28;20177;-61
2021/12/22 20:13:28;;;;;;;9.10;5.40;;;24.40;68.70;;;;;;7870649;28;20190;-62